General Aviation Weather

Text Reports

Enter one or more of the following location identifiers separated by a space:

Zip Code, Four-Character ICAO or Three-Character IATA airport codes.

METAR - Aviation Routine Weather Report
KGOO - Grass Valley, California
Updated at 5:55 PM GMT on December 27, 2014 (9:55 AM PST):
METAR KGOO 271755Z AUTO 16004KT 10SM CLR 04/M01 A3033 RMK AO1
TAF - Terminal Area Forecast
KGOO - Grass Valley, California
Updated at 5:55 PM GMT on December 27, 2014 (9:55 AM PST):
No TAF is currently available for this location.
Decoded:
No decoded TAF is available.
PIREP - Pilot Weather Report
KGOO - Grass Valley, California
Updated at 5:55 PM GMT on December 27, 2014 (9:55 AM PST):
No PIREP is currently available for this location.
AIRMET - Airmens Meteorological Information
KGOO - Grass Valley, California
Updated at 5:55 PM GMT on December 27, 2014 (9:55 AM PST):
No AIRMET is currently available for this location.
SIGMET - Significant Meteorological Information
KGOO - Grass Valley, California
Updated at 5:55 PM GMT on December 27, 2014 (9:55 AM PST):
No SIGMET is currently available for this location.
NOTAM - Notice to Airmen
KGOO - Grass Valley, California
Updated at 5:55 PM GMT on December 27, 2014 (9:55 AM PST):
No NOTAM is currently available for this location.
Forecast Area
KGOO - Grass Valley, California
Updated at 5:55 PM GMT on December 27, 2014 (9:55 AM PST):
No NOTAM is currently available for this location.
Aviation Weather Maps